Mumbai Express — V2AH1 — position and weather

sailwx.info

Track history (hours):
 
Tides and Currents Weather Stations Pressure Air Temp Water Temp Dewpoint Dewpoint Depression Visibility Wind Speed Wind Dir Waves Ship Positions

Mumbai Express

Last reported at 2015-May-25 13:00 UTC. Time now 2015-May-26 09:50 UTC.
Position N 47°42' W 026°24'.

Length 260.7 m; beam 32.3 m; draft 12.5 m.

Type: Ship (hazmat cat A). MMSI: 304010914.

Wind from 160 at 9 knots

Waves 1.0 meters (3 feet)

Barometer 1036.0 mb
Air temperature 19.0 ° C
Visibility: greater than 2.2 NM
Water temperature 18.0 ° C

Date/timePositionNaut miles runAvg speedWind from/ knotsBaromVisibWave heightAir tempDewpointWater temp
2015-May-25 13:00N 47°42' W 026°24'   160 / 91036.0 2.2 1.019.0 18.0
2015-May-21 13:28N 40°23' W 068°38'1819.2
2015-May-21 12:32N 40°26' W 069°01'1919.2
2015-May-21 11:33N 40°27' W 069°25'1919.1
2015-May-21 10:32N 40°26' W 069°51'7619.2
2015-May-21 06:33N 40°23' W 071°31'2019.7
2015-May-21 05:33N 40°23' W 071°57'2019.6
2015-May-21 04:34N 40°22' W 072°23'2019.4
2015-May-21 03:33N 40°21' W 072°48'2119.2
2015-May-21 02:26N 40°22' W 073°16'2119.2
2015-May-21 01:19N 40°26' W 073°44'1012.0
2015-May-21 00:29N 40°30' W 073°56'1112.2
2015-May-20 23:33N 40°39' W 074°05'3 3.4
2015-May-20 22:33N 40°41' W 074°09'1 0.7
2015-May-20 21:32N 40°41' W 074°09'0 0.0
2015-May-20 20:29N 40°41' W 074°09'0 0.0
2015-May-20 19:31N 40°41' W 074°09'0 0.0
2015-May-20 18:31N 40°41' W 074°09'0 0.0
2015-May-20 17:28N 40°41' W 074°09'0 0.0
2015-May-20 16:33N 40°41' W 074°09'11531091.3
2015-May-20 15:30N 21°28' W 074°09'1153848.3
2015-May-20 14:08N 40°41' W 074°09'0 0.0
2015-May-20 13:11N 40°41' W 074°09'0 0.0
2015-May-20 12:28N 40°41' W 074°09'0 0.0
2015-May-20 11:28N 40°41' W 074°09'0 0.0
2015-May-20 10:21N 40°41' W 074°09'0 0.0
2015-May-20 09:33N 40°41' W 074°09'0 0.0
2015-May-20 08:33N 40°41' W 074°09'0 0.0
2015-May-20 07:26N 40°41' W 074°09'0 0.0
2015-May-20 06:32N 40°41' W 074°09'0 0.0
2015-May-20 05:31N 40°41' W 074°09'0 0.0
2015-May-20 04:31N 40°41' W 074°09'0 0.0
2015-May-20 03:15N 40°41' W 074°09'0 0.0
2015-May-20 02:33N 40°41' W 074°09'0 0.0
2015-May-20 01:27N 40°41' W 074°09'0 0.0
2015-May-20 00:32N 40°41' W 074°09'0 0.0
2015-May-19 23:32N 40°41' W 074°09'0 0.0
2015-May-19 22:31N 40°41' W 074°09'0 0.0
2015-May-19 21:31N 40°41' W 074°09'0 0.0
2015-May-19 20:21N 40°41' W 074°09'0 0.0
2015-May-19 19:30N 40°41' W 074°09'0 0.0
2015-May-19 18:33N 40°41' W 074°09'0 0.0
2015-May-19 17:20N 40°41' W 074°09'0 0.0
2015-May-19 16:29N 40°41' W 074°09'0 0.0
2015-May-19 15:25N 40°41' W 074°09'0 0.0
2015-May-19 14:28N 40°41' W 074°09'0 0.0
2015-May-19 13:30N 40°41' W 074°09'0 0.0
2015-May-19 12:30N 40°41' W 074°09'0 0.0
2015-May-19 11:33N 40°41' W 074°09'0 0.0
2015-May-19 10:32N 40°41' W 074°09'0 0.0
2015-May-19 09:32N 40°41' W 074°09'0 0.0
2015-May-19 08:28N 40°41' W 074°09'0 0.0
2015-May-19 07:31N 40°41' W 074°09'0 0.0
2015-May-19 06:33N 40°41' W 074°09'0 0.0
2015-May-19 05:30N 40°41' W 074°09'0 0.0
2015-May-19 04:33N 40°41' W 074°09'0 0.0
2015-May-19 03:32N 40°41' W 074°09'0 0.0
2015-May-19 02:32N 40°41' W 074°09'0 0.0
2015-May-19 01:31N 40°41' W 074°09'0 0.0
2015-May-19 00:31N 40°41' W 074°09'0 0.0
2015-May-18 23:30N 40°41' W 074°09'0 0.0
2015-May-18 22:33N 40°41' W 074°09'0 0.0
2015-May-18 21:33N 40°41' W 074°09'0 0.5
2015-May-18 20:33N 40°41' W 074°09'3 3.3
2015-May-18 19:33N 40°39' W 074°05'9 8.8
2015-May-18 18:33N 40°31' W 073°60'1111.3
2015-May-18 17:33N 40°25' W 073°47'1010.1
2015-May-18 16:33N 40°15' W 073°46'1211.9
2015-May-18 15:34N 40°04' W 073°44'1212.0
2015-May-18 14:33N 39°52' W 073°42'1311.6
2015-May-18 13:28N 39°39' W 073°43'1413.0
2015-May-18 12:23N 39°25' W 073°47'1213.8
2015-May-18 11:32N 39°14' W 073°50'1413.9
2015-May-18 10:32N 38°60' W 073°53'1714.4
2015-May-18 09:22N 38°44' W 073°58'51716.2
2015-May-17 01:26N 31°58' W 080°30'1315.2
2015-May-17 00:34N 31°59' W 080°46'1211.9
2015-May-16 23:33N 32°04' W 080°58'7 7.2
2015-May-16 22:33N 32°06' W 081°07'3 2.9
2015-May-16 21:33N 32°08' W 081°09'0 0.0
2015-May-16 20:33N 32°08' W 081°09'0 0.0
2015-May-16 19:33N 32°08' W 081°09'0 0.0
2015-May-16 18:32N 32°08' W 081°09'0 0.0
2015-May-16 17:32N 32°08' W 081°09'0 0.0
2015-May-16 16:31N 32°08' W 081°09'0 0.0
2015-May-16 15:28N 32°08' W 081°09'0 0.0
2015-May-16 14:33N 32°08' W 081°09'0 0.0
2015-May-16 13:33N 32°08' W 081°09'0 0.0
2015-May-16 12:33N 32°08' W 081°09'0 0.0
2015-May-16 11:32N 32°08' W 081°09'0 0.0
2015-May-16 10:32N 32°08' W 081°09'0 0.0
2015-May-16 09:31N 32°08' W 081°09'0 0.0
2015-May-16 08:31N 32°08' W 081°09'0 0.0
2015-May-16 07:33N 32°08' W 081°09'0 0.0
2015-May-16 06:33N 32°08' W 081°09'0 0.0
2015-May-16 05:33N 32°08' W 081°09'0 0.0
2015-May-16 04:32N 32°08' W 081°09'0 0.0
2015-May-16 03:32N 32°08' W 081°09'0 0.0
2015-May-16 02:32N 32°08' W 081°09'0 0.0
2015-May-16 01:31N 32°08' W 081°09'0 0.0
2015-May-16 00:33N 32°08' W 081°09'0 0.0
2015-May-15 23:33N 32°08' W 081°09'0 0.0
2015-May-15 22:33N 32°08' W 081°09'0 0.0
2015-May-15 21:32N 32°08' W 081°09'0 0.0
2015-May-15 20:32N 32°08' W 081°09'0 0.0
2015-May-15 19:31N 32°08' W 081°09'0 0.0
2015-May-15 18:31N 32°08' W 081°09'0 0.0
2015-May-15 17:33N 32°08' W 081°09'0 0.0
2015-May-15 16:33N 32°08' W 081°09'0 0.0
2015-May-15 15:33N 32°08' W 081°09'0 0.0
2015-May-15 14:32N 32°08' W 081°09'3 2.9
2015-May-15 13:34N 32°06' W 081°07'  
Track history (hours):
 
Tides and Currents Weather Stations Pressure Air Temp Water Temp Dewpoint Dewpoint Depression Visibility Wind Speed Wind Dir Waves Ship Positions

Mumbai Express

Last reported at 2015-May-25 13:00 UTC. Time now 2015-May-26 09:50 UTC.
Position N 47°42' W 026°24'.

Length 260.7 m; beam 32.3 m; draft 12.5 m.

Type: Ship (hazmat cat A). MMSI: 304010914.

Wind from 160 at 9 knots

Waves 1.0 meters (3 feet)

Barometer 1036.0 mb
Air temperature 19.0 ° C
Visibility: greater than 2.2 NM
Water temperature 18.0 ° C

Date/timePositionNaut miles runAvg speedWind from/ knotsBaromVisibWave heightAir tempDewpointWater temp
2015-May-25 13:00N 47°42' W 026°24'   160 / 91036.0 2.2 1.019.0 18.0
2015-May-21 13:28N 40°23' W 068°38'1819.2
2015-May-21 12:32N 40°26' W 069°01'1919.2
2015-May-21 11:33N 40°27' W 069°25'1919.1
2015-May-21 10:32N 40°26' W 069°51'7619.2
2015-May-21 06:33N 40°23' W 071°31'2019.7
2015-May-21 05:33N 40°23' W 071°57'2019.6
2015-May-21 04:34N 40°22' W 072°23'2019.4
2015-May-21 03:33N 40°21' W 072°48'2119.2
2015-May-21 02:26N 40°22' W 073°16'2119.2
2015-May-21 01:19N 40°26' W 073°44'1012.0
2015-May-21 00:29N 40°30' W 073°56'1112.2
2015-May-20 23:33N 40°39' W 074°05'3 3.4
2015-May-20 22:33N 40°41' W 074°09'1 0.7
2015-May-20 21:32N 40°41' W 074°09'0 0.0
2015-May-20 20:29N 40°41' W 074°09'0 0.0
2015-May-20 19:31N 40°41' W 074°09'0 0.0
2015-May-20 18:31N 40°41' W 074°09'0 0.0
2015-May-20 17:28N 40°41' W 074°09'0 0.0
2015-May-20 16:33N 40°41' W 074°09'11531091.3
2015-May-20 15:30N 21°28' W 074°09'1153848.3
2015-May-20 14:08N 40°41' W 074°09'0 0.0
2015-May-20 13:11N 40°41' W 074°09'0 0.0
2015-May-20 12:28N 40°41' W 074°09'0 0.0
2015-May-20 11:28N 40°41' W 074°09'0 0.0
2015-May-20 10:21N 40°41' W 074°09'0 0.0
2015-May-20 09:33N 40°41' W 074°09'0 0.0
2015-May-20 08:33N 40°41' W 074°09'0 0.0
2015-May-20 07:26N 40°41' W 074°09'0 0.0
2015-May-20 06:32N 40°41' W 074°09'0 0.0
2015-May-20 05:31N 40°41' W 074°09'0 0.0
2015-May-20 04:31N 40°41' W 074°09'0 0.0
2015-May-20 03:15N 40°41' W 074°09'0 0.0
2015-May-20 02:33N 40°41' W 074°09'0 0.0
2015-May-20 01:27N 40°41' W 074°09'0 0.0
2015-May-20 00:32N 40°41' W 074°09'0 0.0
2015-May-19 23:32N 40°41' W 074°09'0 0.0
2015-May-19 22:31N 40°41' W 074°09'0 0.0
2015-May-19 21:31N 40°41' W 074°09'0 0.0
2015-May-19 20:21N 40°41' W 074°09'0 0.0
2015-May-19 19:30N 40°41' W 074°09'0 0.0
2015-May-19 18:33N 40°41' W 074°09'0 0.0
2015-May-19 17:20N 40°41' W 074°09'0 0.0
2015-May-19 16:29N 40°41' W 074°09'0 0.0
2015-May-19 15:25N 40°41' W 074°09'0 0.0
2015-May-19 14:28N 40°41' W 074°09'0 0.0
2015-May-19 13:30N 40°41' W 074°09'0 0.0
2015-May-19 12:30N 40°41' W 074°09'0 0.0
2015-May-19 11:33N 40°41' W 074°09'0 0.0
2015-May-19 10:32N 40°41' W 074°09'0 0.0
2015-May-19 09:32N 40°41' W 074°09'0 0.0
2015-May-19 08:28N 40°41' W 074°09'0 0.0
2015-May-19 07:31N 40°41' W 074°09'0 0.0
2015-May-19 06:33N 40°41' W 074°09'0 0.0
2015-May-19 05:30N 40°41' W 074°09'0 0.0
2015-May-19 04:33N 40°41' W 074°09'0 0.0
2015-May-19 03:32N 40°41' W 074°09'0 0.0
2015-May-19 02:32N 40°41' W 074°09'0 0.0
2015-May-19 01:31N 40°41' W 074°09'0 0.0
2015-May-19 00:31N 40°41' W 074°09'0 0.0
2015-May-18 23:30N 40°41' W 074°09'0 0.0
2015-May-18 22:33N 40°41' W 074°09'0 0.0
2015-May-18 21:33N 40°41' W 074°09'0 0.5
2015-May-18 20:33N 40°41' W 074°09'3 3.3
2015-May-18 19:33N 40°39' W 074°05'9 8.8
2015-May-18 18:33N 40°31' W 073°60'1111.3
2015-May-18 17:33N 40°25' W 073°47'1010.1
2015-May-18 16:33N 40°15' W 073°46'1211.9
2015-May-18 15:34N 40°04' W 073°44'1212.0
2015-May-18 14:33N 39°52' W 073°42'1311.6
2015-May-18 13:28N 39°39' W 073°43'1413.0
2015-May-18 12:23N 39°25' W 073°47'1213.8
2015-May-18 11:32N 39°14' W 073°50'1413.9
2015-May-18 10:32N 38°60' W 073°53'1714.4
2015-May-18 09:22N 38°44' W 073°58'51716.2
2015-May-17 01:26N 31°58' W 080°30'1315.2
2015-May-17 00:34N 31°59' W 080°46'1211.9
2015-May-16 23:33N 32°04' W 080°58'7 7.2
2015-May-16 22:33N 32°06' W 081°07'3 2.9
2015-May-16 21:33N 32°08' W 081°09'0 0.0
2015-May-16 20:33N 32°08' W 081°09'0 0.0
2015-May-16 19:33N 32°08' W 081°09'0 0.0
2015-May-16 18:32N 32°08' W 081°09'0 0.0
2015-May-16 17:32N 32°08' W 081°09'0 0.0
2015-May-16 16:31N 32°08' W 081°09'0 0.0
2015-May-16 15:28N 32°08' W 081°09'0 0.0
2015-May-16 14:33N 32°08' W 081°09'0 0.0
2015-May-16 13:33N 32°08' W 081°09'0 0.0
2015-May-16 12:33N 32°08' W 081°09'0 0.0
2015-May-16 11:32N 32°08' W 081°09'0 0.0
2015-May-16 10:32N 32°08' W 081°09'0 0.0
2015-May-16 09:31N 32°08' W 081°09'0 0.0
2015-May-16 08:31N 32°08' W 081°09'0 0.0
2015-May-16 07:33N 32°08' W 081°09'0 0.0
2015-May-16 06:33N 32°08' W 081°09'0 0.0
2015-May-16 05:33N 32°08' W 081°09'0 0.0
2015-May-16 04:32N 32°08' W 081°09'0 0.0
2015-May-16 03:32N 32°08' W 081°09'0 0.0
2015-May-16 02:32N 32°08' W 081°09'0 0.0
2015-May-16 01:31N 32°08' W 081°09'0 0.0
2015-May-16 00:33N 32°08' W 081°09'0 0.0
2015-May-15 23:33N 32°08' W 081°09'0 0.0
2015-May-15 22:33N 32°08' W 081°09'0 0.0
2015-May-15 21:32N 32°08' W 081°09'0 0.0
2015-May-15 20:32N 32°08' W 081°09'0 0.0
2015-May-15 19:31N 32°08' W 081°09'0 0.0
2015-May-15 18:31N 32°08' W 081°09'0 0.0
2015-May-15 17:33N 32°08' W 081°09'0 0.0
2015-May-15 16:33N 32°08' W 081°09'0 0.0
2015-May-15 15:33N 32°08' W 081°09'0 0.0
2015-May-15 14:32N 32°08' W 081°09'3 2.9
2015-May-15 13:34N 32°06' W 081°07'  

Dump ship's entire track history